sensor_id;sensor_type;location;lat;lon;timestamp;pressure;altitude;pressure_sealevel;temperature;humidity
65666;BME280;52365;47.464;18.976;2023-05-10T00:00:17;100018.34;;;14.16;56.80
65666;BME280;52365;47.464;18.976;2023-05-10T00:00:39;100025.25;;;13.67;58.24
65666;BME280;52365;47.464;18.976;2023-05-10T00:01:00;100022.19;;;13.45;59.09
65666;BME280;52365;47.464;18.976;2023-05-10T00:01:21;100027.41;;;13.48;59.45
65666;BME280;52365;47.464;18.976;2023-05-10T00:01:42;100031.50;;;13.88;58.69
65666;BME280;52365;47.464;18.976;2023-05-10T00:02:03;100022.72;;;13.93;58.10
65666;BME280;52365;47.464;18.976;2023-05-10T00:02:24;100027.94;;;13.97;58.06
65666;BME280;52365;47.464;18.976;2023-05-10T00:02:40;100026.81;;;13.74;58.26
65666;BME280;52365;47.464;18.976;2023-05-10T00:02:56;100019.72;;;13.91;58.39
65666;BME280;52365;47.464;18.976;2023-05-10T00:03:17;100025.94;;;14.12;57.69
65666;BME280;52365;47.464;18.976;2023-05-10T00:03:38;100014.47;;;14.38;56.96
65666;BME280;52365;47.464;18.976;2023-05-10T00:04:00;100030.06;;;14.43;56.35
65666;BME280;52365;47.464;18.976;2023-05-10T00:04:21;100029.38;;;14.27;56.93
65666;BME280;52365;47.464;18.976;2023-05-10T00:04:42;100020.00;;;14.28;56.74
65666;BME280;52365;47.464;18.976;2023-05-10T00:05:04;100022.12;;;14.04;57.39
65666;BME280;52365;47.464;18.976;2023-05-10T00:05:25;100020.66;;;13.88;57.91
65666;BME280;52365;47.464;18.976;2023-05-10T00:05:46;100017.44;;;14.04;58.05
65666;BME280;52365;47.464;18.976;2023-05-10T00:06:07;100019.28;;;14.13;57.47
65666;BME280;52365;47.464;18.976;2023-05-10T00:06:28;100021.44;;;14.09;57.68
65666;BME280;52365;47.464;18.976;2023-05-10T00:06:44;100014.03;;;14.24;57.21
65666;BME280;52365;47.464;18.976;2023-05-10T00:07:05;100018.84;;;14.00;57.63
65666;BME280;52365;47.464;18.976;2023-05-10T00:07:26;100018.62;;;13.83;58.10
65666;BME280;52365;47.464;18.976;2023-05-10T00:07:47;100018.41;;;13.86;58.39
65666;BME280;52365;47.464;18.976;2023-05-10T00:08:03;100021.56;;;14.00;57.94
65666;BME280;52365;47.464;18.976;2023-05-10T00:08:25;100021.34;;;13.83;58.25
65666;BME280;52365;47.464;18.976;2023-05-10T00:08:46;100018.34;;;13.51;59.19
65666;BME280;52365;47.464;18.976;2023-05-10T00:09:07;100015.19;;;13.53;59.44
65666;BME280;52365;47.464;18.976;2023-05-10T00:09:28;100017.22;;;13.43;59.76
65666;BME280;52365;47.464;18.976;2023-05-10T00:09:49;100016.19;;;13.55;59.49
65666;BME280;52365;47.464;18.976;2023-05-10T00:10:10;100017.13;;;13.67;59.13
65666;BME280;52365;47.464;18.976;2023-05-10T00:10:31;100013.44;;;14.00;58.54
65666;BME280;52365;47.464;18.976;2023-05-10T00:10:53;100017.69;;;13.71;58.69
65666;BME280;52365;47.464;18.976;2023-05-10T00:11:08;100019.16;;;13.87;58.65
65666;BME280;52365;47.464;18.976;2023-05-10T00:11:29;100021.41;;;13.74;58.74
65666;BME280;52365;47.464;18.976;2023-05-10T00:11:50;100016.19;;;13.55;59.17
65666;BME280;52365;47.464;18.976;2023-05-10T00:12:11;100026.19;;;13.64;59.20
65666;BME280;52365;47.464;18.976;2023-05-10T00:12:32;100017.97;;;13.73;59.04
65666;BME280;52365;47.464;18.976;2023-05-10T00:12:53;100025.53;;;13.54;59.28
65666;BME280;52365;47.464;18.976;2023-05-10T00:13:15;100021.06;;;13.37;60.05
65666;BME280;52365;47.464;18.976;2023-05-10T00:13:36;100018.81;;;13.35;60.15
65666;BME280;52365;47.464;18.976;2023-05-10T00:13:57;100022.12;;;13.15;60.78
65666;BME280;52365;47.464;18.976;2023-05-10T00:14:18;100023.56;;;13.25;60.79
65666;BME280;52365;47.464;18.976;2023-05-10T00:14:39;100022.09;;;13.54;60.40
65666;BME280;52365;47.464;18.976;2023-05-10T00:15:00;100020.78;;;13.64;59.61
65666;BME280;52365;47.464;18.976;2023-05-10T00:15:21;100024.59;;;13.72;59.38
65666;BME280;52365;47.464;18.976;2023-05-10T00:15:42;100019.06;;;13.81;58.95
65666;BME280;52365;47.464;18.976;2023-05-10T00:16:03;100021.34;;;13.53;59.56
65666;BME280;52365;47.464;18.976;2023-05-10T00:16:24;100016.03;;;13.44;59.85
65666;BME280;52365;47.464;18.976;2023-05-10T00:16:45;100019.84;;;13.23;60.68
65666;BME280;52365;47.464;18.976;2023-05-10T00:17:06;100021.34;;;13.53;60.33
65666;BME280;52365;47.464;18.976;2023-05-10T00:17:28;100025.91;;;13.62;59.90
65666;BME280;52365;47.464;18.976;2023-05-10T00:17:49;100021.16;;;13.57;59.69
65666;BME280;52365;47.464;18.976;2023-05-10T00:18:10;100016.56;;;13.33;60.20
65666;BME280;52365;47.464;18.976;2023-05-10T00:18:31;100020.31;;;13.36;60.28
65666;BME280;52365;47.464;18.976;2023-05-10T00:18:52;100018.34;;;13.37;60.53
65666;BME280;52365;47.464;18.976;2023-05-10T00:19:13;100023.97;;;13.48;60.22
65666;BME280;52365;47.464;18.976;2023-05-10T00:19:34;100014.44;;;13.67;59.55
65666;BME280;52365;47.464;18.976;2023-05-10T00:19:55;100019.38;;;13.69;59.44
65666;BME280;52365;47.464;18.976;2023-05-10T00:20:16;100020.41;;;13.71;59.27
65666;BME280;52365;47.464;18.976;2023-05-10T00:20:37;100021.62;;;13.41;60.16
65666;BME280;52365;47.464;18.976;2023-05-10T00:20:58;100013.09;;;13.77;59.53
65666;BME280;52365;47.464;18.976;2023-05-10T00:21:20;100019.53;;;13.65;59.17
65666;BME280;52365;47.464;18.976;2023-05-10T00:21:41;100026.66;;;13.48;59.83
65666;BME280;52365;47.464;18.976;2023-05-10T00:22:02;100015.31;;;13.20;60.70
65666;BME280;52365;47.464;18.976;2023-05-10T00:22:23;100023.41;;;13.05;61.31
65666;BME280;52365;47.464;18.976;2023-05-10T00:22:44;100016.28;;;12.93;61.69
65666;BME280;52365;47.464;18.976;2023-05-10T00:23:05;100024.13;;;12.91;61.97
65666;BME280;52365;47.464;18.976;2023-05-10T00:23:26;100017.25;;;13.04;61.89
65666;BME280;52365;47.464;18.976;2023-05-10T00:23:47;100021.41;;;13.29;61.44
65666;BME280;52365;47.464;18.976;2023-05-10T00:24:08;100009.87;;;13.44;60.61
65666;BME280;52365;47.464;18.976;2023-05-10T00:24:29;100015.31;;;13.20;61.06
65666;BME280;52365;47.464;18.976;2023-05-10T00:24:50;100011.06;;;13.28;60.97
65666;BME280;52365;47.464;18.976;2023-05-10T00:25:11;100012.41;;;13.08;61.36
65666;BME280;52365;47.464;18.976;2023-05-10T00:25:32;100021.78;;;12.83;62.08
65666;BME280;52365;47.464;18.976;2023-05-10T00:25:53;100017.06;;;13.08;62.12
65666;BME280;52365;47.464;18.976;2023-05-10T00:26:14;100014.00;;;13.15;61.51
65666;BME280;52365;47.464;18.976;2023-05-10T00:26:37;100014.91;;;13.12;61.59
65666;BME280;52365;47.464;18.976;2023-05-10T00:26:58;100014.06;;;13.06;61.73
65666;BME280;52365;47.464;18.976;2023-05-10T00:27:19;100010.06;;;13.16;61.68
65666;BME280;52365;47.464;18.976;2023-05-10T00:27:40;100010.50;;;13.24;61.51
65666;BME280;52365;47.464;18.976;2023-05-10T00:27:56;100009.09;;;13.28;61.09
65666;BME280;52365;47.464;18.976;2023-05-10T00:28:17;100008.66;;;13.45;60.92
65666;BME280;52365;47.464;18.976;2023-05-10T00:28:33;100013.97;;;13.54;60.37
65666;BME280;52365;47.464;18.976;2023-05-10T00:28:54;100014.53;;;13.58;60.05
65666;BME280;52365;47.464;18.976;2023-05-10T00:29:15;100006.87;;;13.27;60.61
65666;BME280;52365;47.464;18.976;2023-05-10T00:29:36;100006.87;;;13.27;60.97
65666;BME280;52365;47.464;18.976;2023-05-10T00:29:57;100005.56;;;13.22;61.15
65666;BME280;52365;47.464;18.976;2023-05-10T00:30:19;100012.09;;;13.30;61.02
65666;BME280;52365;47.464;18.976;2023-05-10T00:30:39;100014.28;;;13.17;61.29
65666;BME280;52365;47.464;18.976;2023-05-10T00:31:00;100014.81;;;13.30;61.19
65666;BME280;52365;47.464;18.976;2023-05-10T00:31:21;100011.22;;;13.24;61.17
65666;BME280;52365;47.464;18.976;2023-05-10T00:31:43;100009.63;;;13.18;61.40
65666;BME280;52365;47.464;18.976;2023-05-10T00:32:04;100015.88;;;13.09;61.63
65666;BME280;52365;47.464;18.976;2023-05-10T00:32:20;100006.59;;;13.01;61.80
65666;BME280;52365;47.464;18.976;2023-05-10T00:32:41;100013.59;;;12.93;62.23
65666;BME280;52365;47.464;18.976;2023-05-10T00:33:02;100009.50;;;12.97;62.09
65666;BME280;52365;47.464;18.976;2023-05-10T00:33:23;100007.44;;;12.68;62.76
65666;BME280;52365;47.464;18.976;2023-05-10T00:33:44;100012.66;;;12.96;62.62
65666;BME280;52365;47.464;18.976;2023-05-10T00:34:05;100010.31;;;13.27;61.73
65666;BME280;52365;47.464;18.976;2023-05-10T00:34:26;100015.56;;;13.46;60.94
65666;BME280;52365;47.464;18.976;2023-05-10T00:34:47;100012.09;;;13.60;60.16
65666;BME280;52365;47.464;18.976;2023-05-10T00:35:09;100011.06;;;13.28;60.73
65666;BME280;52365;47.464;18.976;2023-05-10T00:35:30;100010.50;;;13.24;60.91
65666;BME280;52365;47.464;18.976;2023-05-10T00:35:51;100007.53;;;12.98;61.72
65666;BME280;52365;47.464;18.976;2023-05-10T00:36:12;100006.22;;;13.08;61.70
65666;BME280;52365;47.464;18.976;2023-05-10T00:36:28;100011.84;;;13.04;61.94
65666;BME280;52365;47.464;18.976;2023-05-10T00:36:49;100011.66;;;13.08;61.84
65666;BME280;52365;47.464;18.976;2023-05-10T00:37:10;100008.41;;;13.04;62.00
65666;BME280;52365;47.464;18.976;2023-05-10T00:37:26;100005.50;;;13.07;61.88
65666;BME280;52365;47.464;18.976;2023-05-10T00:37:47;100007.44;;;13.07;61.82
65666;BME280;52365;47.464;18.976;2023-05-10T00:38:08;100002.78;;;13.07;61.98
65666;BME280;52365;47.464;18.976;2023-05-10T00:38:29;100012.78;;;13.16;61.66
65666;BME280;52365;47.464;18.976;2023-05-10T00:38:50;100011.97;;;13.25;61.35
65666;BME280;52365;47.464;18.976;2023-05-10T00:39:06;100011.97;;;13.25;61.36
65666;BME280;52365;47.464;18.976;2023-05-10T00:39:27;100010.03;;;13.25;61.26
65666;BME280;52365;47.464;18.976;2023-05-10T00:39:49;100010.88;;;13.31;61.12
65666;BME280;52365;47.464;18.976;2023-05-10T00:40:10;100011.13;;;13.19;61.15
65666;BME280;52365;47.464;18.976;2023-05-10T00:40:32;100009.72;;;13.08;61.70
65666;BME280;52365;47.464;18.976;2023-05-10T00:40:53;100008.25;;;12.83;62.38
65666;BME280;52365;47.464;18.976;2023-05-10T00:41:14;100004.41;;;12.75;62.91
65666;BME280;52365;47.464;18.976;2023-05-10T00:41:35;100012.50;;;12.75;63.03
65666;BME280;52365;47.464;18.976;2023-05-10T00:41:57;100005.94;;;12.91;62.76
65666;BME280;52365;47.464;18.976;2023-05-10T00:42:18;100006.03;;;12.97;62.51
65666;BME280;52365;47.464;18.976;2023-05-10T00:42:39;100005.12;;;13.00;62.33
65666;BME280;52365;47.464;18.976;2023-05-10T00:43:00;100009.50;;;13.12;62.12
65666;BME280;52365;47.464;18.976;2023-05-10T00:43:22;100005.50;;;13.07;62.06
65666;BME280;52365;47.464;18.976;2023-05-10T00:43:43;100009.59;;;13.03;62.21
65666;BME280;52365;47.464;18.976;2023-05-10T00:44:04;100006.47;;;12.80;62.71
65666;BME280;52365;47.464;18.976;2023-05-10T00:44:25;100012.50;;;12.75;63.01
65666;BME280;52365;47.464;18.976;2023-05-10T00:44:46;100009.47;;;12.82;63.07
65666;BME280;52365;47.464;18.976;2023-05-10T00:45:07;100007.28;;;12.72;63.25
65666;BME280;52365;47.464;18.976;2023-05-10T00:45:24;100006.50;;;12.56;63.69
65666;BME280;52365;47.464;18.976;2023-05-10T00:45:45;100006.81;;;12.49;63.97
65666;BME280;52365;47.464;18.976;2023-05-10T00:46:01;100000.84;;;12.69;63.90
65666;BME280;52365;47.464;18.976;2023-05-10T00:46:23;100011.06;;;12.89;63.32
65666;BME280;52365;47.464;18.976;2023-05-10T00:46:44;100008.41;;;12.80;63.12
65666;BME280;52365;47.464;18.976;2023-05-10T00:47:06;100003.19;;;12.76;63.13
65666;BME280;52365;47.464;18.976;2023-05-10T00:47:27;100001.41;;;12.73;63.34
65666;BME280;52365;47.464;18.976;2023-05-10T00:47:48;99999.00;;;12.75;63.43
65666;BME280;52365;47.464;18.976;2023-05-10T00:48:09;99997.62;;;12.95;63.05
65666;BME280;52365;47.464;18.976;2023-05-10T00:48:26;100003.72;;;13.04;62.57
65666;BME280;52365;47.464;18.976;2023-05-10T00:48:43;100000.66;;;13.11;62.35
65666;BME280;52365;47.464;18.976;2023-05-10T00:49:05;100003.50;;;13.32;61.96
65666;BME280;52365;47.464;18.976;2023-05-10T00:49:26;99999.50;;;13.03;62.01
65666;BME280;52365;47.464;18.976;2023-05-10T00:49:48;99998.44;;;12.86;62.62
65666;BME280;52365;47.464;18.976;2023-05-10T00:50:09;100000.28;;;12.65;63.39
65666;BME280;52365;47.464;18.976;2023-05-10T00:50:31;99996.78;;;12.89;63.45
65666;BME280;52365;47.464;18.976;2023-05-10T00:50:53;99995.56;;;13.28;62.25
65666;BME280;52365;47.464;18.976;2023-05-10T00:51:14;100005.00;;;13.48;61.13
65666;BME280;52365;47.464;18.976;2023-05-10T00:51:35;99999.50;;;13.27;61.27
65666;BME280;52365;47.464;18.976;2023-05-10T00:51:57;100004.19;;;13.03;61.97
65666;BME280;52365;47.464;18.976;2023-05-10T00:52:18;99999.06;;;13.05;62.24
65666;BME280;52365;47.464;18.976;2023-05-10T00:52:39;100000.19;;;13.13;62.02
65666;BME280;52365;47.464;18.976;2023-05-10T00:53:01;100001.03;;;13.19;61.88
65666;BME280;52365;47.464;18.976;2023-05-10T00:53:24;99999.19;;;13.25;61.60
65666;BME280;52365;47.464;18.976;2023-05-10T00:53:45;100003.97;;;13.30;61.47
65666;BME280;52365;47.464;18.976;2023-05-10T00:54:02;100002.31;;;13.48;61.20
65666;BME280;52365;47.464;18.976;2023-05-10T00:54:23;100001.91;;;13.55;60.70
65666;BME280;52365;47.464;18.976;2023-05-10T00:54:44;100005.38;;;13.26;61.13
65666;BME280;52365;47.464;18.976;2023-05-10T00:55:06;99995.06;;;13.15;61.75
65666;BME280;52365;47.464;18.976;2023-05-10T00:55:27;99996.97;;;13.24;61.75
65666;BME280;52365;47.464;18.976;2023-05-10T00:55:44;99995.94;;;13.36;61.47
65666;BME280;52365;47.464;18.976;2023-05-10T00:56:05;100004.16;;;13.42;61.27
65666;BME280;52365;47.464;18.976;2023-05-10T00:56:27;99995.28;;;13.71;60.72
65666;BME280;52365;47.464;18.976;2023-05-10T00:56:51;100001.69;;;13.88;59.83
65666;BME280;52365;47.464;18.976;2023-05-10T00:57:12;100003.97;;;13.60;60.12
65666;BME280;52365;47.464;18.976;2023-05-10T00:57:33;99993.41;;;13.32;60.97
65666;BME280;52365;47.464;18.976;2023-05-10T00:57:54;99993.37;;;13.18;61.51
65666;BME280;52365;47.464;18.976;2023-05-10T00:58:15;100002.91;;;13.13;61.96
65666;BME280;52365;47.464;18.976;2023-05-10T00:58:36;100000.88;;;13.38;61.69
65666;BME280;52365;47.464;18.976;2023-05-10T00:58:57;99991.09;;;13.40;61.04
65666;BME280;52365;47.464;18.976;2023-05-10T00:59:19;100000.72;;;13.26;61.40
65666;BME280;52365;47.464;18.976;2023-05-10T00:59:40;99995.88;;;13.06;62.01
65666;BME280;52365;47.464;18.976;2023-05-10T01:00:02;99997.94;;;12.97;62.51
65666;BME280;52365;47.464;18.976;2023-05-10T01:00:23;99998.50;;;13.01;62.57
65666;BME280;52365;47.464;18.976;2023-05-10T01:00:46;99992.84;;;13.28;62.07
65666;BME280;52365;47.464;18.976;2023-05-10T01:01:08;99996.31;;;13.29;61.53
65666;BME280;52365;47.464;18.976;2023-05-10T01:01:30;100000.63;;;13.35;61.33
65666;BME280;52365;47.464;18.976;2023-05-10T01:01:51;99992.03;;;12.98;62.14
65666;BME280;52365;47.464;18.976;2023-05-10T01:02:13;99996.84;;;12.79;62.92
65666;BME280;52365;47.464;18.976;2023-05-10T01:02:34;99991.84;;;12.87;63.10
65666;BME280;52365;47.464;18.976;2023-05-10T01:02:51;99997.56;;;13.04;62.77
65666;BME280;52365;47.464;18.976;2023-05-10T01:03:13;100003.91;;;13.16;62.37
65666;BME280;52365;47.464;18.976;2023-05-10T01:03:35;99993.78;;;13.25;61.82
65666;BME280;52365;47.464;18.976;2023-05-10T01:03:57;99991.69;;;13.20;61.91
65666;BME280;52365;47.464;18.976;2023-05-10T01:04:18;99999.63;;;13.09;62.39
65666;BME280;52365;47.464;18.976;2023-05-10T01:04:46;99994.34;;;13.29;62.01
65666;BME280;52365;47.464;18.976;2023-05-10T01:05:03;99997.81;;;13.45;61.33
65666;BME280;52365;47.464;18.976;2023-05-10T01:05:24;99999.50;;;13.57;61.04
65666;BME280;52365;47.464;18.976;2023-05-10T01:05:45;99994.69;;;13.81;60.28
65666;BME280;52365;47.464;18.976;2023-05-10T01:06:07;99991.13;;;13.90;59.70
65666;BME280;52365;47.464;18.976;2023-05-10T01:06:28;99994.47;;;14.00;59.30
65666;BME280;52365;47.464;18.976;2023-05-10T01:06:49;99997.47;;;14.02;59.08
65666;BME280;52365;47.464;18.976;2023-05-10T01:07:10;99999.00;;;13.88;59.03
65666;BME280;52365;47.464;18.976;2023-05-10T01:07:31;99992.72;;;13.82;59.28
65666;BME280;52365;47.464;18.976;2023-05-10T01:07:52;99996.69;;;13.37;60.34
65666;BME280;52365;47.464;18.976;2023-05-10T01:08:13;99997.34;;;13.31;60.92
65666;BME280;52365;47.464;18.976;2023-05-10T01:08:34;99998.44;;;13.25;61.22
65666;BME280;52365;47.464;18.976;2023-05-10T01:08:56;99999.53;;;13.18;61.62
65666;BME280;52365;47.464;18.976;2023-05-10T01:09:12;100005.56;;;13.22;61.59
65666;BME280;52365;47.464;18.976;2023-05-10T01:09:33;99993.97;;;13.22;61.31
65666;BME280;52365;47.464;18.976;2023-05-10T01:09:55;99992.66;;;13.17;61.32
65666;BME280;52365;47.464;18.976;2023-05-10T01:10:16;99997.19;;;13.11;61.85
65666;BME280;52365;47.464;18.976;2023-05-10T01:10:37;99992.50;;;13.35;61.56
65666;BME280;52365;47.464;18.976;2023-05-10T01:10:58;99996.69;;;13.66;60.46
65666;BME280;52365;47.464;18.976;2023-05-10T01:11:19;99994.16;;;13.63;60.24
65666;BME280;52365;47.464;18.976;2023-05-10T01:11:41;100000.00;;;13.91;59.68
65666;BME280;52365;47.464;18.976;2023-05-10T01:12:02;100001.00;;;14.08;58.85
65666;BME280;52365;47.464;18.976;2023-05-10T01:12:25;99999.00;;;14.23;58.41
65666;BME280;52365;47.464;18.976;2023-05-10T01:12:43;99992.22;;;14.33;58.08
65666;BME280;52365;47.464;18.976;2023-05-10T01:13:05;99997.84;;;14.30;57.80
65666;BME280;52365;47.464;18.976;2023-05-10T01:13:32;99994.78;;;14.22;58.01
65666;BME280;52365;47.464;18.976;2023-05-10T01:13:56;99994.31;;;14.24;58.07
65666;BME280;52365;47.464;18.976;2023-05-10T01:14:18;99990.72;;;14.12;58.06
65666;BME280;52365;47.464;18.976;2023-05-10T01:14:40;99992.31;;;14.04;58.32
65666;BME280;52365;47.464;18.976;2023-05-10T01:15:01;99993.31;;;13.71;58.98
65666;BME280;52365;47.464;18.976;2023-05-10T01:15:23;99993.41;;;13.77;59.34
65666;BME280;52365;47.464;18.976;2023-05-10T01:15:44;99991.28;;;13.66;59.42
65666;BME280;52365;47.464;18.976;2023-05-10T01:16:07;99991.06;;;13.25;60.53
65666;BME280;52365;47.464;18.976;2023-05-10T01:16:29;99997.44;;;13.22;61.13
65666;BME280;52365;47.464;18.976;2023-05-10T01:16:53;99998.56;;;13.30;61.16
65666;BME280;52365;47.464;18.976;2023-05-10T01:17:15;99992.09;;;13.13;61.49
65666;BME280;52365;47.464;18.976;2023-05-10T01:17:38;99994.47;;;12.96;62.00
65666;BME280;52365;47.464;18.976;2023-05-10T01:18:00;99999.97;;;12.87;62.50
65666;BME280;52365;47.464;18.976;2023-05-10T01:18:21;99991.19;;;12.53;63.33
65666;BME280;52365;47.464;18.976;2023-05-10T01:18:39;99999.53;;;12.65;63.46
65666;BME280;52365;47.464;18.976;2023-05-10T01:19:01;99993.31;;;12.73;63.46
65666;BME280;52365;47.464;18.976;2023-05-10T01:19:21;99992.16;;;12.65;63.58
65666;BME280;52365;47.464;18.976;2023-05-10T01:19:43;99988.50;;;12.68;63.63
65666;BME280;52365;47.464;18.976;2023-05-10T01:20:04;99995.88;;;12.68;63.62
65666;BME280;52365;47.464;18.976;2023-05-10T01:20:43;99991.78;;;12.72;63.48
65666;BME280;52365;47.464;18.976;2023-05-10T01:22:02;99995.06;;;12.76;63.23
65666;BME280;52365;47.464;18.976;2023-05-10T01:24:31;99987.84;;;12.58;63.82
65666;BME280;52365;47.464;18.976;2023-05-10T01:27:57;99995.22;;;12.97;63.13
65666;BME280;52365;47.464;18.976;2023-05-10T01:30:47;99984.63;;;12.45;64.09
65666;BME280;52365;47.464;18.976;2023-05-10T01:33:46;99984.00;;;12.26;65.55
65666;BME280;52365;47.464;18.976;2023-05-10T01:34:32;99986.22;;;12.28;65.45
65666;BME280;52365;47.464;18.976;2023-05-10T01:35:26;99992.59;;;12.64;64.69
65666;BME280;52365;47.464;18.976;2023-05-10T01:37:01;99994.00;;;12.59;64.47
65666;BME280;52365;47.464;18.976;2023-05-10T01:37:07;99988.72;;;12.65;64.24
65666;BME280;52365;47.464;18.976;2023-05-10T01:38:04;99989.97;;;12.78;63.75
65666;BME280;52365;47.464;18.976;2023-05-10T01:39:46;99990.38;;;12.62;63.98
65666;BME280;52365;47.464;18.976;2023-05-10T01:40:17;99989.59;;;12.85;63.29
65666;BME280;52365;47.464;18.976;2023-05-10T01:42:23;99990.94;;;12.66;63.80
65666;BME280;52365;47.464;18.976;2023-05-10T01:42:51;99989.00;;;12.81;63.96
65666;BME280;52365;47.464;18.976;2023-05-10T01:43:21;99989.66;;;13.15;62.76
65666;BME280;52365;47.464;18.976;2023-05-10T01:43:54;99994.34;;;13.29;62.08
65666;BME280;52365;47.464;18.976;2023-05-10T01:45:28;99990.97;;;12.81;62.83
65666;BME280;52365;47.464;18.976;2023-05-10T01:46:16;99989.31;;;12.59;64.20
65666;BME280;52365;47.464;18.976;2023-05-10T01:46:39;99989.31;;;12.59;64.24
65666;BME280;52365;47.464;18.976;2023-05-10T01:47:10;99988.06;;;12.70;64.12
65666;BME280;52365;47.464;18.976;2023-05-10T01:47:46;99990.06;;;12.84;63.79
65666;BME280;52365;47.464;18.976;2023-05-10T01:48:11;99987.34;;;13.23;62.43
65666;BME280;52365;47.464;18.976;2023-05-10T01:48:34;99986.37;;;13.11;62.30
65666;BME280;52365;47.464;18.976;2023-05-10T01:48:57;99984.91;;;12.71;62.98
65666;BME280;52365;47.464;18.976;2023-05-10T01:49:28;99985.84;;;12.44;64.26
65666;BME280;52365;47.464;18.976;2023-05-10T01:49:54;99987.34;;;12.84;64.04
65666;BME280;52365;47.464;18.976;2023-05-10T01:50:22;99983.09;;;12.92;63.15
65666;BME280;52365;47.464;18.976;2023-05-10T01:50:46;99990.91;;;12.90;63.17
65666;BME280;52365;47.464;18.976;2023-05-10T01:51:09;99988.88;;;13.00;63.01
65666;BME280;52365;47.464;18.976;2023-05-10T01:51:37;99989.16;;;13.17;62.55
65666;BME280;52365;47.464;18.976;2023-05-10T01:52:06;99986.53;;;12.93;62.92
65666;BME280;52365;47.464;18.976;2023-05-10T01:52:33;99980.97;;;13.11;62.83
65666;BME280;52365;47.464;18.976;2023-05-10T01:52:59;99991.88;;;13.17;62.45
65666;BME280;52365;47.464;18.976;2023-05-10T01:53:21;99991.06;;;13.25;62.02
65666;BME280;52365;47.464;18.976;2023-05-10T01:53:46;99988.09;;;13.23;62.27
65666;BME280;52365;47.464;18.976;2023-05-10T01:54:08;99989.06;;;13.11;62.28
65666;BME280;52365;47.464;18.976;2023-05-10T01:54:32;99986.63;;;12.98;62.67
65666;BME280;52365;47.464;18.976;2023-05-10T01:54:56;99987.34;;;12.84;63.08
65666;BME280;52365;47.464;18.976;2023-05-10T01:55:23;99985.78;;;12.92;63.06
65666;BME280;52365;47.464;18.976;2023-05-10T01:55:52;99986.53;;;12.93;63.18
65666;BME280;52365;47.464;18.976;2023-05-10T01:56:15;99987.94;;;13.03;62.92
65666;BME280;52365;47.464;18.976;2023-05-10T01:56:37;99990.56;;;12.97;63.14
65666;BME280;52365;47.464;18.976;2023-05-10T01:57:03;99981.78;;;13.02;62.86
65666;BME280;52365;47.464;18.976;2023-05-10T01:57:25;99990.12;;;12.75;63.52
65666;BME280;52365;47.464;18.976;2023-05-10T01:57:51;99986.00;;;12.65;63.86
65666;BME280;52365;47.464;18.976;2023-05-10T01:58:10;99982.31;;;12.53;64.30
65666;BME280;52365;47.464;18.976;2023-05-10T01:58:33;99981.34;;;12.65;64.46
65666;BME280;52365;47.464;18.976;2023-05-10T01:58:56;99978.31;;;12.87;63.85
65666;BME280;52365;47.464;18.976;2023-05-10T01:59:19;99984.06;;;12.80;63.59
65666;BME280;52365;47.464;18.976;2023-05-10T01:59:43;99978.00;;;12.70;63.95
65666;BME280;52365;47.464;18.976;2023-05-10T02:00:03;99975.63;;;12.63;64.27
65666;BME280;52365;47.464;18.976;2023-05-10T02:00:26;99989.72;;;12.67;64.23
65666;BME280;52365;47.464;18.976;2023-05-10T02:00:45;99975.81;;;12.98;63.87
65666;BME280;52365;47.464;18.976;2023-05-10T02:01:08;99976.63;;;13.28;62.83
65666;BME280;52365;47.464;18.976;2023-05-10T02:01:30;99983.81;;;13.31;62.10
65666;BME280;52365;47.464;18.976;2023-05-10T02:01:52;99977.53;;;13.25;62.14
65666;BME280;52365;47.464;18.976;2023-05-10T02:02:10;99977.91;;;13.18;62.19
65666;BME280;52365;47.464;18.976;2023-05-10T02:02:40;99977.75;;;12.83;63.03
65666;BME280;52365;47.464;18.976;2023-05-10T02:03:05;99976.94;;;12.92;63.54
65666;BME280;52365;47.464;18.976;2023-05-10T02:03:28;99975.97;;;12.80;63.64
65666;BME280;52365;47.464;18.976;2023-05-10T02:03:50;99979.16;;;12.78;63.84
65666;BME280;52365;47.464;18.976;2023-05-10T02:04:08;99973.56;;;12.97;63.57
65666;BME280;52365;47.464;18.976;2023-05-10T02:04:31;99972.44;;;12.89;63.54
65666;BME280;52365;47.464;18.976;2023-05-10T02:04:50;99971.88;;;12.84;63.63
65666;BME280;52365;47.464;18.976;2023-05-10T02:05:13;99969.16;;;12.84;63.63
65666;BME280;52365;47.464;18.976;2023-05-10T02:05:36;99974.97;;;12.92;63.54
65666;BME280;52365;47.464;18.976;2023-05-10T02:05:58;99971.44;;;13.01;63.39
65666;BME280;52365;47.464;18.976;2023-05-10T02:06:21;99967.88;;;12.95;63.32
65666;BME280;52365;47.464;18.976;2023-05-10T02:06:43;99970.03;;;13.05;63.19
65666;BME280;52365;47.464;18.976;2023-05-10T02:07:06;99967.81;;;13.04;63.08
65666;BME280;52365;47.464;18.976;2023-05-10T02:07:30;99962.34;;;12.74;63.56
65666;BME280;52365;47.464;18.976;2023-05-10T02:07:53;99972.91;;;12.87;64.06
65666;BME280;52365;47.464;18.976;2023-05-10T02:08:15;99974.72;;;13.20;63.10
65666;BME280;52365;47.464;18.976;2023-05-10T02:08:36;99972.19;;;13.16;62.67
65666;BME280;52365;47.464;18.976;2023-05-10T02:08:54;99970.69;;;13.15;62.53
65666;BME280;52365;47.464;18.976;2023-05-10T02:09:16;99967.78;;;12.89;63.06
65666;BME280;52365;47.464;18.976;2023-05-10T02:09:38;99968.72;;;13.01;63.34
65666;BME280;52365;47.464;18.976;2023-05-10T02:10:02;99972.59;;;13.24;62.68
65666;BME280;52365;47.464;18.976;2023-05-10T02:10:18;99962.31;;;13.13;62.48
65666;BME280;52365;47.464;18.976;2023-05-10T02:10:40;99969.87;;;13.09;62.68
65666;BME280;52365;47.464;18.976;2023-05-10T02:11:04;99962.37;;;12.89;63.06